Time;durP1;ratioP1;P1;durP2;ratioP2;P2;SDS_P1;SDS_P2;PMS_P1;PMS_P2;Temp;Humidity;BMP_temperature;BMP_pressure;BME280_temperature;BME280_humidity;BME280_pressure;Samples;Min_cycle;Max_cycle;Signal;HPM_P1;HPM_P2
2022/01/05 00:00:59;;;;;;;3.47;1.33;;;3.90;99.90;;;;;;4969308;28;20034;-68
2022/01/05 00:03:24;;;;;;;7.38;1.88;;;3.90;99.90;;;;;;4975986;28;20034;-68
2022/01/05 00:05:50;;;;;;;12.15;2.00;;;3.80;99.90;;;;;;4948660;28;20042;-68
2022/01/05 00:08:18;;;;;;;6.38;1.60;;;3.80;99.90;;;;;;4973636;28;20110;-68
2022/01/05 00:10:44;;;;;;;6.68;2.00;;;3.70;99.90;;;;;;4977229;28;20810;-68
2022/01/05 00:13:09;;;;;;;8.68;1.88;;;3.70;99.90;;;;;;4952701;28;20031;-68
2022/01/05 00:15:35;;;;;;;7.72;2.17;;;3.70;99.90;;;;;;4955477;28;20038;-68
2022/01/05 00:18:00;;;;;;;3.67;1.73;;;3.80;99.90;;;;;;4954381;28;20034;-68
2022/01/05 00:20:26;;;;;;;11.40;1.60;;;3.90;99.90;;;;;;4966798;28;20031;-68
2022/01/05 00:22:51;;;;;;;13.60;1.92;;;3.90;99.90;;;;;;4976083;28;20231;-68
2022/01/05 00:25:17;;;;;;;10.23;2.10;;;3.90;99.90;;;;;;4976460;28;20743;-68
2022/01/05 00:27:42;;;;;;;6.65;1.77;;;4.00;99.90;;;;;;4972233;28;20022;-68
2022/01/05 00:30:08;;;;;;;7.50;1.67;;;4.00;99.90;;;;;;4954417;28;20110;-68
2022/01/05 00:32:33;;;;;;;5.88;1.67;;;4.00;99.90;;;;;;4979336;28;20037;-68
2022/01/05 00:34:59;;;;;;;8.38;1.58;;;4.10;99.90;;;;;;4972605;28;20556;-68
2022/01/05 00:37:25;;;;;;;6.70;1.83;;;4.10;99.90;;;;;;4978228;28;20057;-68
2022/01/05 00:39:50;;;;;;;7.20;1.60;;;4.10;99.90;;;;;;4979969;28;20733;-68
2022/01/05 00:42:16;;;;;;;9.82;1.45;;;4.10;99.90;;;;;;4974420;28;20058;-68
2022/01/05 00:44:41;;;;;;;3.08;1.38;;;4.10;99.90;;;;;;4977813;28;20030;-69
2022/01/05 00:47:07;;;;;;;3.60;1.30;;;4.10;99.90;;;;;;4940191;28;20491;-68
2022/01/05 00:49:32;;;;;;;3.03;1.55;;;4.10;99.90;;;;;;4974683;28;20066;-68
2022/01/05 00:51:58;;;;;;;3.40;1.27;;;4.10;99.90;;;;;;4977093;28;20717;-68
2022/01/05 00:54:23;;;;;;;12.27;1.80;;;4.10;99.90;;;;;;4978936;28;20074;-67
2022/01/05 00:56:49;;;;;;;29.65;12.90;;;4.10;99.90;;;;;;4965598;28;20106;-69
2022/01/05 00:59:14;;;;;;;7.43;2.30;;;4.10;99.90;;;;;;4975710;28;20472;-68
2022/01/05 01:01:40;;;;;;;8.85;3.17;;;4.10;99.90;;;;;;4973085;28;20054;-68
2022/01/05 01:04:05;;;;;;;7.93;1.58;;;4.20;99.90;;;;;;4958041;28;20039;-68
2022/01/05 01:06:31;;;;;;;7.78;1.15;;;4.20;99.90;;;;;;4960903;28;20055;-68
2022/01/05 01:08:56;;;;;;;9.85;1.80;;;4.20;99.90;;;;;;4958245;28;20058;-68
2022/01/05 01:11:22;;;;;;;8.27;1.50;;;4.20;99.90;;;;;;4954986;28;20030;-68
2022/01/05 01:13:47;;;;;;;9.32;1.50;;;4.20;99.90;;;;;;4977078;28;20069;-68
2022/01/05 01:16:13;;;;;;;6.28;1.70;;;4.30;99.90;;;;;;4974204;28;20098;-68
2022/01/05 01:18:38;;;;;;;6.97;1.67;;;4.30;99.90;;;;;;4964571;28;20038;-68
2022/01/05 01:21:04;;;;;;;4.60;1.15;;;4.30;99.90;;;;;;4979970;28;20124;-68
2022/01/05 01:23:29;;;;;;;16.27;1.50;;;4.30;99.90;;;;;;4979057;28;20114;-68
2022/01/05 01:25:55;;;;;;;7.75;1.60;;;4.30;99.90;;;;;;4973859;28;20030;-68
2022/01/05 01:28:21;;;;;;;8.20;1.52;;;4.20;99.90;;;;;;4979816;28;20469;-68
2022/01/05 01:30:47;;;;;;;5.57;1.45;;;4.20;99.90;;;;;;4978812;28;20037;-67
2022/01/05 01:33:12;;;;;;;6.95;1.95;;;4.20;99.90;;;;;;4981274;28;20031;-68
2022/01/05 01:35:38;;;;;;;6.68;1.33;;;4.20;99.90;;;;;;4963536;28;20057;-68
2022/01/05 01:38:03;;;;;;;10.80;1.15;;;4.20;99.90;;;;;;4976056;28;20031;-68
2022/01/05 01:40:29;;;;;;;8.50;1.50;;;4.20;99.90;;;;;;4975290;28;20038;-68
2022/01/05 01:42:54;;;;;;;5.00;1.50;;;4.20;99.90;;;;;;4978448;28;20085;-68
2022/01/05 01:45:20;;;;;;;6.72;1.30;;;4.20;99.90;;;;;;4979010;28;20031;-68
2022/01/05 01:47:46;;;;;;;11.10;1.25;;;4.20;99.90;;;;;;4953175;28;20081;-68
2022/01/05 01:50:11;;;;;;;10.70;1.45;;;4.20;99.90;;;;;;4979473;28;20035;-68
2022/01/05 01:52:37;;;;;;;11.07;1.58;;;4.20;99.90;;;;;;4975374;28;20030;-68
2022/01/05 01:55:02;;;;;;;11.85;1.13;;;4.20;99.90;;;;;;4964372;28;20454;-68
2022/01/05 01:57:28;;;;;;;8.98;1.33;;;4.20;99.90;;;;;;4977325;28;20459;-68
2022/01/05 01:59:53;;;;;;;12.77;1.40;;;4.20;99.90;;;;;;4962936;28;20089;-68
2022/01/05 02:02:19;;;;;;;7.47;1.38;;;4.20;99.90;;;;;;4978453;28;20072;-68
2022/01/05 02:04:44;;;;;;;7.97;1.20;;;4.20;99.90;;;;;;4969485;28;20056;-69
2022/01/05 02:07:10;;;;;;;4.97;1.10;;;4.20;99.90;;;;;;4976325;28;20030;-69
2022/01/05 02:09:35;;;;;;;7.40;1.50;;;4.20;99.90;;;;;;4961730;28;20811;-68
2022/01/05 02:12:01;;;;;;;13.07;1.15;;;4.20;99.90;;;;;;4979005;28;20031;-69
2022/01/05 02:14:26;;;;;;;4.47;1.20;;;4.20;99.90;;;;;;4982454;28;20371;-68
2022/01/05 02:16:52;;;;;;;5.22;1.00;;;4.20;99.90;;;;;;4977726;28;20045;-69
2022/01/05 02:19:17;;;;;;;5.95;1.30;;;4.20;99.90;;;;;;4982927;28;20038;-68
2022/01/05 02:21:43;;;;;;;6.05;1.30;;;4.20;99.90;;;;;;4979077;28;20023;-68
2022/01/05 02:24:08;;;;;;;7.10;1.13;;;4.20;99.90;;;;;;4962710;28;20681;-68
2022/01/05 02:26:34;;;;;;;7.13;1.05;;;4.10;99.90;;;;;;4963429;28;20066;-68
2022/01/05 02:28:59;;;;;;;13.85;1.23;;;4.20;99.90;;;;;;4979608;28;20026;-69
2022/01/05 02:31:25;;;;;;;5.95;1.05;;;4.20;99.90;;;;;;4978510;28;20430;-69
2022/01/05 02:33:50;;;;;;;11.27;1.83;;;4.20;99.90;;;;;;4978575;28;20034;-68
2022/01/05 02:36:19;;;;;;;6.85;1.60;;;4.30;99.90;;;;;;4971383;28;20046;-68
2022/01/05 02:38:45;;;;;;;13.85;1.27;;;4.30;99.90;;;;;;4969819;28;20108;-68
2022/01/05 02:41:10;;;;;;;8.63;2.10;;;4.30;99.90;;;;;;4984271;28;20034;-69
2022/01/05 02:43:36;;;;;;;5.55;1.33;;;4.30;99.90;;;;;;4977906;28;20816;-69
2022/01/05 02:46:01;;;;;;;4.78;1.20;;;4.30;99.90;;;;;;4977713;28;20058;-68
2022/01/05 02:48:27;;;;;;;10.30;1.55;;;4.30;99.90;;;;;;4977176;28;20035;-68
2022/01/05 02:50:52;;;;;;;3.22;1.02;;;4.30;99.90;;;;;;4971141;28;20169;-68
2022/01/05 02:53:18;;;;;;;18.48;1.60;;;4.30;99.90;;;;;;4960687;28;20038;-68
2022/01/05 02:55:43;;;;;;;7.65;1.38;;;4.30;99.90;;;;;;4967100;28;20478;-68
2022/01/05 02:58:09;;;;;;;7.63;1.30;;;4.30;99.90;;;;;;4975100;28;20039;-68
2022/01/05 03:00:34;;;;;;;7.25;1.25;;;4.30;99.90;;;;;;4962627;28;21396;-69
2022/01/05 03:03:00;;;;;;;7.60;1.60;;;4.30;99.90;;;;;;4974812;28;20031;-69
2022/01/05 03:05:25;;;;;;;10.93;1.50;;;4.30;99.90;;;;;;4976827;28;20034;-69
2022/01/05 03:07:50;;;;;;;4.68;0.93;;;4.30;99.90;;;;;;4977894;28;20041;-69
2022/01/05 03:10:16;;;;;;;9.40;1.25;;;4.30;99.90;;;;;;4978258;28;20085;-68
2022/01/05 03:12:42;;;;;;;4.95;1.00;;;4.30;99.90;;;;;;4976643;28;20038;-69
2022/01/05 03:15:07;;;;;;;13.45;1.45;;;4.30;99.90;;;;;;4960548;28;20058;-69
2022/01/05 03:17:33;;;;;;;5.78;1.13;;;4.30;99.90;;;;;;4956015;28;20474;-68
2022/01/05 03:19:58;;;;;;;6.20;1.10;;;4.20;99.90;;;;;;4973812;28;20035;-68
2022/01/05 03:22:24;;;;;;;7.97;1.40;;;4.20;99.90;;;;;;4976493;28;20031;-68
2022/01/05 03:24:49;;;;;;;6.00;1.20;;;4.20;99.90;;;;;;4965581;28;20100;-68
2022/01/05 03:27:15;;;;;;;6.38;1.25;;;4.20;99.90;;;;;;4974624;28;20031;-68
2022/01/05 03:29:40;;;;;;;5.38;1.35;;;4.20;99.90;;;;;;4968062;28;20491;-69
2022/01/05 03:32:06;;;;;;;9.65;1.27;;;4.20;99.90;;;;;;4954117;28;20151;-69
2022/01/05 03:34:32;;;;;;;13.57;1.33;;;4.20;99.90;;;;;;4975502;28;20655;-69
2022/01/05 03:36:57;;;;;;;6.05;1.05;;;4.20;99.90;;;;;;4976800;28;20068;-69
2022/01/05 03:39:23;;;;;;;7.60;1.00;;;4.20;99.90;;;;;;4980306;28;20043;-68
2022/01/05 03:41:48;;;;;;;5.38;0.90;;;4.10;99.90;;;;;;4975411;28;20019;-68
2022/01/05 03:44:14;;;;;;;3.60;1.10;;;4.10;99.90;;;;;;4977040;28;20605;-68
2022/01/05 03:46:39;;;;;;;7.10;1.00;;;4.10;99.90;;;;;;4971436;28;20026;-68
2022/01/05 03:49:05;;;;;;;13.73;1.20;;;4.10;99.90;;;;;;4963511;28;20026;-68
2022/01/05 03:51:30;;;;;;;5.80;1.17;;;4.00;99.90;;;;;;4961093;28;20117;-68
2022/01/05 03:53:56;;;;;;;8.18;0.90;;;4.00;99.90;;;;;;4980823;28;20737;-68
2022/01/05 03:56:21;;;;;;;10.25;1.55;;;4.10;99.90;;;;;;4940988;28;20097;-68
2022/01/05 03:58:47;;;;;;;4.15;1.10;;;4.10;99.90;;;;;;4975066;28;20497;-68
2022/01/05 04:01:13;;;;;;;3.85;0.85;;;4.10;99.90;;;;;;4969770;28;20109;-68
2022/01/05 04:03:38;;;;;;;8.10;1.38;;;4.00;99.90;;;;;;4979898;28;20427;-68
2022/01/05 04:06:05;;;;;;;10.30;1.10;;;3.90;99.90;;;;;;4979773;28;20030;-68
2022/01/05 04:08:30;;;;;;;7.40;0.95;;;3.90;99.90;;;;;;4958628;28;20031;-68
2022/01/05 04:10:56;;;;;;;7.50;1.13;;;3.80;99.90;;;;;;4957918;28;20403;-68
2022/01/05 04:13:21;;;;;;;8.88;1.17;;;3.80;99.90;;;;;;4975114;28;20035;-68
2022/01/05 04:15:47;;;;;;;10.70;1.02;;;3.80;99.90;;;;;;4972059;28;20073;-68
2022/01/05 04:18:12;;;;;;;11.95;2.22;;;3.70;99.90;;;;;;4960802;28;20061;-68
2022/01/05 04:20:38;;;;;;;4.70;1.38;;;3.70;99.90;;;;;;4982130;28;20050;-69
2022/01/05 04:23:03;;;;;;;6.07;1.25;;;3.70;99.90;;;;;;4973448;28;20027;-69
2022/01/05 04:25:30;;;;;;;5.53;0.95;;;3.60;99.90;;;;;;4945333;28;20073;-68
2022/01/05 04:27:56;;;;;;;6.85;0.95;;;3.60;99.90;;;;;;4973147;28;20030;-68
2022/01/05 04:30:21;;;;;;;4.45;1.05;;;3.60;99.90;;;;;;4970379;28;20038;-68
2022/01/05 04:32:47;;;;;;;6.38;0.90;;;3.50;99.90;;;;;;4947178;28;20069;-68
2022/01/05 04:35:14;;;;;;;4.90;0.95;;;3.50;99.90;;;;;;4978976;28;20047;-68
2022/01/05 04:37:39;;;;;;;8.13;1.13;;;3.50;99.90;;;;;;4959032;28;20818;-68
2022/01/05 04:40:05;;;;;;;6.57;1.10;;;3.50;99.90;;;;;;4976640;28;20065;-69
2022/01/05 04:42:30;;;;;;;10.95;0.95;;;3.50;99.90;;;;;;4972765;28;20169;-69
2022/01/05 04:44:56;;;;;;;7.22;0.90;;;3.40;99.90;;;;;;4972997;28;20401;-68
2022/01/05 04:47:21;;;;;;;4.70;0.80;;;3.40;99.90;;;;;;4960943;28;20486;-69
2022/01/05 04:49:46;;;;;;;10.10;1.10;;;3.40;99.90;;;;;;4978690;28;20042;-68
2022/01/05 04:52:12;;;;;;;8.07;1.20;;;3.40;99.90;;;;;;4973185;28;20070;-68
2022/01/05 04:54:37;;;;;;;8.63;1.10;;;3.40;99.90;;;;;;4977809;28;20409;-69
2022/01/05 04:57:03;;;;;;;10.57;1.33;;;3.40;99.90;;;;;;4970081;28;20035;-69
2022/01/05 04:59:28;;;;;;;3.22;0.88;;;3.30;99.90;;;;;;4958050;28;20035;-69
2022/01/05 05:01:54;;;;;;;5.82;1.23;;;3.40;99.90;;;;;;4979664;28;20061;-69
2022/01/05 05:04:20;;;;;;;6.50;0.98;;;3.30;99.90;;;;;;4978596;28;20043;-69
2022/01/05 05:06:46;;;;;;;9.88;1.10;;;3.30;99.90;;;;;;4965790;28;20014;-69
2022/01/05 05:09:12;;;;;;;7.13;1.23;;;3.30;99.90;;;;;;4977047;28;20046;-69
2022/01/05 05:11:37;;;;;;;6.53;1.10;;;3.30;99.90;;;;;;4969960;28;20038;-69
2022/01/05 05:14:03;;;;;;;8.18;1.25;;;3.30;99.90;;;;;;4977457;28;20072;-69
2022/01/05 05:16:28;;;;;;;12.60;1.38;;;3.30;99.90;;;;;;4980964;28;20447;-69
2022/01/05 05:18:54;;;;;;;12.52;1.73;;;3.30;99.90;;;;;;4980732;28;20695;-69
2022/01/05 05:21:19;;;;;;;12.18;1.83;;;3.30;99.90;;;;;;4960392;28;20065;-69
2022/01/05 05:23:45;;;;;;;10.98;1.40;;;3.30;99.90;;;;;;4980365;28;20034;-69
2022/01/05 05:26:10;;;;;;;8.73;1.20;;;3.30;99.90;;;;;;4978398;28;20117;-69
2022/01/05 05:28:36;;;;;;;9.98;1.48;;;3.30;99.90;;;;;;4982722;28;20129;-69
2022/01/05 05:31:01;;;;;;;6.13;1.27;;;3.30;99.90;;;;;;4983757;28;20038;-69
2022/01/05 05:33:27;;;;;;;10.55;1.58;;;3.30;99.90;;;;;;4960530;28;20097;-68
2022/01/05 05:35:52;;;;;;;11.65;1.35;;;3.20;99.90;;;;;;4962788;28;20487;-69
2022/01/05 05:38:18;;;;;;;7.22;1.17;;;3.20;99.90;;;;;;4980733;28;20049;-69
2022/01/05 05:40:43;;;;;;;4.43;1.10;;;3.20;99.90;;;;;;4974340;28;20038;-69
2022/01/05 05:43:09;;;;;;;21.33;2.85;;;3.20;99.90;;;;;;4982602;28;20130;-69
2022/01/05 05:45:34;;;;;;;10.02;1.77;;;3.20;99.90;;;;;;4984250;28;20034;-69
2022/01/05 05:48:00;;;;;;;17.90;1.50;;;3.20;99.90;;;;;;4980023;28;20027;-69
2022/01/05 05:50:25;;;;;;;20.33;2.05;;;3.20;99.90;;;;;;4960034;28;20030;-69
2022/01/05 05:52:51;;;;;;;9.93;1.92;;;3.20;99.90;;;;;;4976564;28;20035;-69
2022/01/05 05:55:16;;;;;;;7.47;1.25;;;3.20;99.90;;;;;;4976902;28;20138;-69
2022/01/05 05:57:42;;;;;;;5.22;1.45;;;3.10;99.90;;;;;;4982123;28;20061;-68
2022/01/05 06:00:07;;;;;;;6.57;1.58;;;3.20;99.90;;;;;;4980819;28;20495;-69
2022/01/05 06:02:33;;;;;;;7.95;1.23;;;3.20;99.90;;;;;;4963417;28;20876;-68
2022/01/05 06:04:58;;;;;;;11.05;1.17;;;3.20;99.90;;;;;;4980450;28;20023;-68
2022/01/05 06:07:24;;;;;;;10.55;1.10;;;3.20;99.90;;;;;;4958281;28;20700;-69
2022/01/05 06:09:49;;;;;;;14.50;1.70;;;3.20;99.90;;;;;;4974132;28;20134;-68
2022/01/05 06:12:15;;;;;;;7.47;1.20;;;3.30;99.90;;;;;;4980543;28;20031;-68
2022/01/05 06:14:40;;;;;;;6.03;1.23;;;3.20;99.90;;;;;;4983075;28;20552;-69
2022/01/05 06:17:06;;;;;;;11.73;1.90;;;3.20;99.90;;;;;;4976252;28;20049;-68
2022/01/05 06:19:32;;;;;;;11.27;1.38;;;3.20;99.90;;;;;;4982081;28;20049;-69
2022/01/05 06:21:58;;;;;;;7.15;1.30;;;3.20;99.90;;;;;;4975166;28;20102;-69
2022/01/05 06:24:24;;;;;;;10.98;1.38;;;3.20;99.90;;;;;;4981063;28;20038;-69
2022/01/05 06:26:51;;;;;;;8.48;1.52;;;3.20;99.90;;;;;;4969300;28;20057;-70
2022/01/05 06:29:17;;;;;;;6.72;1.30;;;3.10;99.90;;;;;;4968821;28;20035;-70
2022/01/05 06:31:42;;;;;;;9.50;1.35;;;3.10;99.90;;;;;;4978295;28;20096;-69
2022/01/05 06:34:08;;;;;;;9.75;1.52;;;3.10;99.90;;;;;;4979281;28;20042;-69
2022/01/05 06:36:33;;;;;;;9.15;1.85;;;3.10;99.90;;;;;;4975365;28;20117;-69
2022/01/05 06:38:59;;;;;;;10.57;1.35;;;3.10;99.90;;;;;;4980915;28;20053;-69
2022/01/05 06:41:24;;;;;;;7.60;1.35;;;3.10;99.90;;;;;;4965956;28;20065;-69
2022/01/05 06:43:50;;;;;;;16.13;1.65;;;3.10;99.90;;;;;;4985596;28;20040;-69
2022/01/05 06:46:15;;;;;;;6.57;1.38;;;3.10;99.90;;;;;;4959761;28;20026;-69
2022/01/05 06:48:41;;;;;;;9.55;1.73;;;3.10;99.90;;;;;;4965635;28;20046;-70
2022/01/05 06:51:06;;;;;;;9.52;1.65;;;3.10;99.90;;;;;;4951190;28;20042;-69
2022/01/05 06:53:32;;;;;;;10.38;2.63;;;3.00;99.90;;;;;;4980119;28;20125;-70
2022/01/05 06:55:57;;;;;;;13.25;1.33;;;3.10;99.90;;;;;;4945696;28;20471;-69
2022/01/05 06:58:23;;;;;;;10.75;1.65;;;3.00;99.90;;;;;;4963912;28;20066;-70
2022/01/05 07:00:48;;;;;;;6.60;1.50;;;3.10;99.90;;;;;;4977170;28;20454;-69
2022/01/05 07:03:13;;;;;;;8.02;1.15;;;3.10;99.90;;;;;;4979790;28;20034;-70
2022/01/05 07:05:39;;;;;;;8.82;1.40;;;3.10;99.90;;;;;;4975043;28;20064;-70
2022/01/05 07:08:05;;;;;;;7.97;1.60;;;3.10;99.90;;;;;;4978775;28;20027;-70
2022/01/05 07:10:30;;;;;;;18.92;2.28;;;3.10;99.90;;;;;;4983037;28;20038;-70
2022/01/05 07:12:56;;;;;;;10.27;1.50;;;3.10;99.90;;;;;;4974688;28;20034;-70
2022/01/05 07:15:21;;;;;;;13.23;1.40;;;3.10;99.90;;;;;;4963196;28;20502;-70
2022/01/05 07:17:47;;;;;;;12.02;1.60;;;3.10;99.90;;;;;;4945301;28;20040;-70
2022/01/05 07:20:13;;;;;;;11.43;1.83;;;3.10;99.90;;;;;;4963142;28;20037;-70
2022/01/05 07:22:38;;;;;;;19.98;2.15;;;3.10;99.90;;;;;;4964130;28;20026;-70
2022/01/05 07:25:04;;;;;;;3.83;1.35;;;3.20;99.90;;;;;;4957266;28;20048;-69
2022/01/05 07:27:29;;;;;;;10.80;1.60;;;3.10;99.90;;;;;;4977812;28;20138;-69
2022/01/05 07:29:55;;;;;;;7.45;1.75;;;3.10;99.90;;;;;;4955561;28;20030;-70
2022/01/05 07:32:20;;;;;;;15.77;1.77;;;3.10;99.90;;;;;;4973355;28;20066;-69
2022/01/05 07:34:46;;;;;;;10.82;1.92;;;3.10;99.90;;;;;;4985576;28;20029;-70
2022/01/05 07:37:11;;;;;;;12.52;1.77;;;3.10;99.90;;;;;;4978601;28;20145;-70
2022/01/05 07:39:37;;;;;;;13.10;1.80;;;3.00;99.90;;;;;;4981418;28;20041;-70
2022/01/05 07:42:02;;;;;;;11.50;1.58;;;3.00;99.90;;;;;;4977213;28;20122;-70
2022/01/05 07:44:28;;;;;;;16.02;3.17;;;3.00;99.90;;;;;;4980124;28;20027;-70
2022/01/05 07:46:53;;;;;;;10.13;3.05;;;3.10;99.90;;;;;;4974825;28;20085;-76
2022/01/05 07:49:19;;;;;;;30.00;11.02;;;3.10;99.90;;;;;;4987573;28;20136;-76
2022/01/05 07:51:44;;;;;;;23.80;8.60;;;3.20;99.90;;;;;;4965790;28;20086;-77
2022/01/05 07:54:10;;;;;;;14.20;2.92;;;3.20;99.90;;;;;;4976985;28;20518;-70
2022/01/05 07:56:35;;;;;;;15.95;2.90;;;3.20;99.90;;;;;;4972762;28;20026;-70
2022/01/05 07:59:01;;;;;;;14.68;4.25;;;3.20;99.90;;;;;;4977429;28;20129;-70
2022/01/05 08:01:26;;;;;;;13.45;3.20;;;3.20;99.90;;;;;;4973106;28;20058;-70
2022/01/05 08:03:53;;;;;;;6.57;1.73;;;3.10;99.90;;;;;;4978701;28;20495;-70
2022/01/05 08:06:19;;;;;;;23.60;3.20;;;3.10;99.90;;;;;;4976286;28;20033;-71
2022/01/05 08:08:44;;;;;;;14.93;2.80;;;3.10;99.90;;;;;;4983110;28;20022;-70
2022/01/05 08:11:10;;;;;;;13.27;2.88;;;3.00;99.90;;;;;;4953839;28;20090;-70
2022/01/05 08:13:35;;;;;;;14.77;5.10;;;3.00;99.90;;;;;;4979388;28;20038;-70
2022/01/05 08:16:01;;;;;;;27.15;10.57;;;2.90;99.90;;;;;;4954453;28;20112;-68
2022/01/05 08:18:26;;;;;;;13.85;4.05;;;2.90;99.90;;;;;;4975762;28;20042;-68
2022/01/05 08:20:51;;;;;;;23.10;7.80;;;2.80;99.90;;;;;;4978699;28;20111;-68
2022/01/05 08:23:17;;;;;;;19.02;2.25;;;2.80;99.90;;;;;;4982156;28;20023;-68
2022/01/05 08:25:42;;;;;;;20.70;4.70;;;2.80;99.90;;;;;;4965777;28;20478;-69
2022/01/05 08:28:11;;;;;;;33.63;9.10;;;2.80;99.90;;;;;;4975388;28;20027;-68
2022/01/05 08:30:36;;;;;;;14.02;1.75;;;2.80;99.90;;;;;;4978606;28;20022;-68
2022/01/05 08:33:03;;;;;;;10.38;1.95;;;2.80;99.90;;;;;;4980121;28;20125;-69
2022/01/05 08:35:28;;;;;;;17.38;3.35;;;2.90;99.90;;;;;;4976534;28;20049;-68
2022/01/05 08:37:54;;;;;;;15.88;3.85;;;2.90;99.90;;;;;;4978031;28;20034;-68
2022/01/05 08:40:19;;;;;;;13.55;3.28;;;2.90;99.90;;;;;;4972434;28;20759;-69
2022/01/05 08:42:45;;;;;;;14.30;3.28;;;3.00;99.90;;;;;;4972974;28;20050;-68
2022/01/05 08:45:10;;;;;;;26.55;7.25;;;3.10;99.90;;;;;;4950571;28;20475;-69
2022/01/05 08:47:36;;;;;;;10.52;3.00;;;3.20;99.90;;;;;;4976931;28;20084;-68
2022/01/05 08:50:01;;;;;;;43.67;15.63;;;3.20;99.90;;;;;;4977475;28;20034;-68
2022/01/05 08:52:26;;;;;;;20.33;3.45;;;3.30;99.90;;;;;;4978243;28;20505;-69
2022/01/05 08:54:52;;;;;;;14.07;2.33;;;3.30;99.90;;;;;;4977561;28;20038;-68
2022/01/05 08:57:17;;;;;;;11.85;2.75;;;3.20;99.90;;;;;;4978796;28;20667;-68
2022/01/05 08:59:44;;;;;;;12.65;1.80;;;3.20;99.90;;;;;;4983289;28;21010;-68
2022/01/05 09:02:13;;;;;;;12.30;2.03;;;3.20;99.90;;;;;;4984020;28;20033;-68
2022/01/05 09:04:39;;;;;;;15.05;2.22;;;3.20;99.90;;;;;;4985158;28;20034;-70
2022/01/05 09:07:04;;;;;;;11.35;2.25;;;3.30;99.90;;;;;;4980346;28;20427;-68
2022/01/05 09:09:30;;;;;;;24.73;5.22;;;3.40;99.90;;;;;;4985871;28;20061;-69
2022/01/05 09:11:55;;;;;;;12.32;1.90;;;3.60;99.90;;;;;;4985075;28;20068;-68
2022/01/05 09:14:21;;;;;;;11.82;2.75;;;3.80;99.90;;;;;;4982405;28;20037;-70
2022/01/05 09:16:46;;;;;;;22.35;4.78;;;3.90;99.90;;;;;;4981975;28;20056;-69
2022/01/05 09:19:12;;;;;;;12.15;2.30;;;4.00;99.90;;;;;;4983748;28;20157;-69
2022/01/05 09:21:37;;;;;;;41.65;7.22;;;4.10;99.90;;;;;;4969646;28;20030;-69
2022/01/05 09:24:03;;;;;;;29.05;5.15;;;4.20;99.90;;;;;;4976347;28;20030;-69
2022/01/05 09:26:28;;;;;;;14.88;2.42;;;4.20;99.90;;;;;;4975674;28;20035;-69
2022/01/05 09:28:54;;;;;;;18.90;3.55;;;4.20;99.90;;;;;;4981471;28;20034;-69
2022/01/05 09:31:19;;;;;;;21.25;3.97;;;4.30;99.90;;;;;;4977623;28;20043;-69
2022/01/05 09:33:45;;;;;;;12.13;2.35;;;4.20;99.90;;;;;;4977267;28;20104;-69
2022/01/05 09:36:21;;;;;;;15.80;2.33;;;4.30;99.90;;;;;;4975671;28;20763;-70
2022/01/05 09:43:59;;;;;;;14.70;3.25;;;4.40;99.90;;;;;;4975432;28;20089;-72
2022/01/05 09:46:24;;;;;;;7.78;1.60;;;4.50;99.90;;;;;;4962446;28;20034;-69
2022/01/05 09:48:50;;;;;;;18.20;2.70;;;4.50;99.90;;;;;;4976424;28;20052;-69
2022/01/05 09:51:15;;;;;;;14.10;1.90;;;4.50;99.90;;;;;;4975307;28;20038;-69
2022/01/05 09:53:41;;;;;;;23.73;2.38;;;4.60;99.90;;;;;;4977382;28;20037;-66
2022/01/05 09:56:06;;;;;;;14.25;2.47;;;4.60;99.90;;;;;;4979835;28;20732;-67
2022/01/05 09:58:32;;;;;;;9.77;1.65;;;4.60;99.90;;;;;;4978043;28;20073;-66
2022/01/05 10:00:59;;;;;;;14.48;3.13;;;4.70;99.90;;;;;;4965601;28;20461;-67
2022/01/05 10:03:24;;;;;;;15.20;2.00;;;4.70;99.90;;;;;;4961360;28;20602;-66
2022/01/05 10:05:50;;;;;;;14.27;2.25;;;4.70;99.90;;;;;;4955269;28;20026;-66
2022/01/05 10:08:15;;;;;;;15.65;1.67;;;4.80;99.90;;;;;;4979330;28;20034;-67
2022/01/05 10:10:41;;;;;;;9.77;1.92;;;4.90;99.90;;;;;;4965730;28;20120;-66
2022/01/05 10:13:06;;;;;;;17.02;2.65;;;4.80;99.90;;;;;;4977873;28;20039;-66
2022/01/05 10:15:32;;;;;;;17.30;1.80;;;4.90;99.90;;;;;;4976962;28;20035;-66
2022/01/05 10:17:57;;;;;;;7.80;1.60;;;4.90;99.90;;;;;;4951950;28;20106;-66
2022/01/05 10:20:23;;;;;;;8.25;1.55;;;4.90;99.90;;;;;;4959998;28;20189;-66
2022/01/05 10:22:49;;;;;;;10.27;1.63;;;4.90;99.90;;;;;;4960435;28;20792;-66
2022/01/05 10:25:15;;;;;;;9.38;2.05;;;4.80;99.90;;;;;;4965502;28;20516;-70
2022/01/05 10:27:41;;;;;;;8.82;1.95;;;4.90;99.90;;;;;;4974614;28;20469;-66
2022/01/05 10:30:06;;;;;;;14.43;3.15;;;4.80;99.90;;;;;;4943002;28;20129;-65
2022/01/05 10:32:35;;;;;;;13.98;1.83;;;4.90;99.90;;;;;;4977615;28;20109;-66
2022/01/05 10:35:00;;;;;;;11.20;1.95;;;5.00;99.90;;;;;;4981851;28;20041;-66
2022/01/05 10:37:26;;;;;;;12.20;2.20;;;5.00;99.90;;;;;;4978896;28;20030;-66
2022/01/05 10:39:51;;;;;;;14.75;2.13;;;5.10;99.90;;;;;;4981635;28;20753;-67
2022/01/05 10:42:17;;;;;;;11.80;1.80;;;4.90;99.90;;;;;;4982455;28;20434;-66
2022/01/05 10:44:44;;;;;;;9.90;3.20;;;4.80;99.90;;;;;;4966363;28;20088;-66
2022/01/05 10:47:10;;;;;;;12.77;2.05;;;4.70;99.90;;;;;;4980150;28;20038;-66
2022/01/05 10:49:35;;;;;;;12.15;2.33;;;4.80;99.90;;;;;;4980300;28;20048;-66
2022/01/05 10:52:01;;;;;;;10.25;1.83;;;4.90;99.90;;;;;;4979046;28;20406;-65
2022/01/05 10:54:26;;;;;;;20.20;2.80;;;4.90;99.90;;;;;;4966899;28;20058;-66
2022/01/05 10:56:52;;;;;;;10.15;2.50;;;5.00;99.90;;;;;;4979240;28;20038;-65
2022/01/05 10:59:17;;;;;;;17.92;3.45;;;5.00;99.90;;;;;;4979412;28;20046;-66
2022/01/05 11:01:43;;;;;;;12.07;2.38;;;5.10;99.90;;;;;;4964788;28;20029;-66
2022/01/05 11:04:08;;;;;;;14.85;2.30;;;5.20;99.90;;;;;;4981300;28;20035;-66
2022/01/05 11:06:34;;;;;;;10.70;2.58;;;5.30;99.90;;;;;;4983518;28;20027;-66
2022/01/05 11:09:04;;;;;;;17.35;3.38;;;5.40;99.90;;;;;;4977966;28;20542;-66
2022/01/05 11:11:30;;;;;;;6.47;1.83;;;5.30;99.90;;;;;;4961349;28;20022;-66
2022/01/05 11:13:55;;;;;;;13.85;2.10;;;5.10;99.90;;;;;;4972220;28;20840;-65
2022/01/05 11:16:21;;;;;;;14.88;3.88;;;5.00;99.90;;;;;;4952381;28;20463;-65
2022/01/05 11:18:46;;;;;;;18.95;4.00;;;5.10;99.90;;;;;;4961060;28;20053;-65
2022/01/05 11:21:11;;;;;;;14.10;3.08;;;5.10;99.90;;;;;;4950520;28;20034;-66
2022/01/05 11:23:37;;;;;;;9.32;2.85;;;5.20;99.90;;;;;;4984283;28;20049;-65
2022/01/05 11:26:02;;;;;;;25.85;6.00;;;5.30;99.90;;;;;;4977884;28;20513;-65
2022/01/05 11:28:28;;;;;;;19.42;3.63;;;5.40;99.90;;;;;;4973159;28;20023;-65
2022/01/05 11:30:53;;;;;;;8.35;2.08;;;5.50;99.90;;;;;;4971487;28;20034;-65
2022/01/05 11:33:19;;;;;;;14.00;2.40;;;5.50;99.90;;;;;;4978246;28;20098;-65
2022/01/05 11:35:44;;;;;;;11.32;3.28;;;5.40;99.90;;;;;;4960100;28;20026;-67
2022/01/05 11:38:10;;;;;;;11.88;2.00;;;5.30;99.90;;;;;;4976982;28;20378;-67
2022/01/05 11:40:35;;;;;;;12.55;2.33;;;5.20;99.90;;;;;;4960133;28;20030;-65
2022/01/05 11:43:01;;;;;;;17.77;3.03;;;5.10;99.90;;;;;;4956379;28;20542;-66
2022/01/05 11:45:26;;;;;;;10.05;2.60;;;5.00;99.90;;;;;;4959880;28;20042;-66
2022/01/05 11:47:52;;;;;;;14.57;2.58;;;5.00;99.90;;;;;;4974045;28;20026;-66
2022/01/05 11:50:17;;;;;;;11.43;1.95;;;5.00;99.90;;;;;;4981702;28;20088;-66
2022/01/05 11:52:43;;;;;;;11.80;2.25;;;5.00;99.90;;;;;;4974711;28;20030;-65
2022/01/05 11:55:08;;;;;;;13.40;2.97;;;5.00;99.90;;;;;;4972298;28;20034;-66
2022/01/05 11:57:35;;;;;;;16.90;3.05;;;5.10;99.90;;;;;;4953030;28;20699;-66
2022/01/05 12:00:01;;;;;;;13.85;3.10;;;5.10;99.90;;;;;;4957222;28;20038;-65
2022/01/05 12:02:26;;;;;;;9.50;2.75;;;5.10;99.90;;;;;;4981486;28;20034;-65
2022/01/05 12:04:52;;;;;;;13.30;2.13;;;5.20;99.90;;;;;;4980213;28;20044;-65
2022/01/05 12:07:17;;;;;;;17.70;4.00;;;5.30;99.90;;;;;;4977250;28;20030;-65
2022/01/05 12:09:43;;;;;;;10.48;2.63;;;5.30;99.90;;;;;;4980753;28;20030;-65
2022/01/05 12:12:08;;;;;;;9.57;2.65;;;5.40;99.90;;;;;;4977533;28;20038;-65
2022/01/05 12:14:33;;;;;;;10.57;2.88;;;5.40;99.90;;;;;;4977923;28;20041;-65
2022/01/05 12:16:59;;;;;;;14.43;2.67;;;5.30;99.90;;;;;;4977671;28;20612;-65
2022/01/05 12:19:25;;;;;;;13.75;2.85;;;5.30;99.90;;;;;;4974626;28;20031;-65
2022/01/05 12:21:50;;;;;;;7.78;1.88;;;5.20;99.90;;;;;;4973859;28;20141;-65
2022/01/05 12:24:16;;;;;;;9.88;1.92;;;5.20;99.90;;;;;;4973728;28;20121;-65
2022/01/05 12:26:43;;;;;;;7.90;2.55;;;5.10;99.90;;;;;;4969644;28;20411;-65
2022/01/05 12:29:09;;;;;;;21.05;9.95;;;5.10;99.90;;;;;;4967314;28;20045;-69
2022/01/05 12:31:34;;;;;;;22.08;9.23;;;5.20;99.90;;;;;;4981765;28;20031;-69
2022/01/05 12:34:00;;;;;;;16.52;4.78;;;5.10;99.90;;;;;;4975387;28;20030;-69
2022/01/05 12:36:25;;;;;;;14.50;3.40;;;5.10;99.90;;;;;;4977670;28;20589;-69
2022/01/05 12:38:51;;;;;;;22.10;7.63;;;5.10;99.90;;;;;;4975623;28;20110;-69
2022/01/05 12:41:17;;;;;;;23.75;7.95;;;5.10;99.90;;;;;;4972115;28;20034;-68
2022/01/05 12:43:44;;;;;;;44.85;16.35;;;5.10;99.90;;;;;;4983542;28;20502;-69
2022/01/05 12:46:11;;;;;;;22.67;3.70;;;5.10;99.90;;;;;;4980160;28;20094;-69